Time,TemperatureF,DewpointF,PressureIn,WindDirection,WindDirectionDegrees,WindSpeedMPH,WindSpeedGustMPH,Humidity,HourlyPrecipIn,Conditions,Clouds,dailyrainin,SoftwareType,DateUTC
2013-08-18 11:59:00,88.9,25.4,29.73,North,0,0.0,0.0,1,0.00,,,0.00,WUHU216HW,2013-08-18 15:59:00,
2013-08-18 12:04:00,88.9,25.4,29.73,North,0,0.0,0.0,1,0.00,,,0.00,WUHU216HW,2013-08-18 16:04:00,
2013-08-18 12:09:00,88.9,25.4,29.73,North,0,0.0,0.0,1,0.00,,,0.00,WUHU216HW,2013-08-18 16:09:00,
2013-08-18 12:35:00,90.5,26.6,29.72,North,0,0.0,0.0,1,0.00,,,0.00,WUHU216HW,2013-08-18 16:35:00,
2013-08-18 13:05:00,89.6,25.9,29.72,North,0,0.0,0.0,1,0.00,,,0.00,WUHU216HW,2013-08-18 17:05:00,
2013-08-18 13:35:00,89.3,25.7,29.70,North,0,0.0,0.0,1,0.00,,,0.00,WUHU216HW,2013-08-18 17:35:00,
2013-08-18 14:05:00,90.0,26.2,29.71,North,0,0.0,0.0,1,0.00,,,0.00,WUHU216HW,2013-08-18 18:05:00,
2013-08-18 14:35:00,89.5,25.8,29.70,North,0,0.0,0.0,1,0.00,,,0.00,WUHU216HW,2013-08-18 18:35:00,
2013-08-18 15:05:00,90.7,26.8,29.69,North,0,0.0,0.0,1,0.00,,,0.00,WUHU216HW,2013-08-18 19:05:00,
2013-08-18 15:35:00,91.4,27.4,29.68,North,0,0.0,0.0,1,0.00,,,0.00,WUHU216HW,2013-08-18 19:35:00,
2013-08-18 16:05:00,90.5,26.6,29.65,North,0,0.0,0.0,1,0.00,,,0.00,WUHU216HW,2013-08-18 20:05:00,
2013-08-18 16:35:00,90.0,26.2,29.65,North,0,0.0,0.0,1,0.00,,,0.00,WUHU216HW,2013-08-18 20:35:00,
2013-08-18 17:05:00,89.6,25.9,29.65,North,0,0.0,0.0,1,0.00,,,0.00,WUHU216HW,2013-08-18 21:05:00,
2013-08-18 17:10:00,89.6,25.9,29.65,North,0,0.0,0.0,1,0.00,,,0.00,WUHU216HW,2013-08-18 21:10:00,
2013-08-18 17:35:00,89.8,26.1,29.65,North,0,0.0,0.0,1,0.00,,,0.00,WUHU216HW,2013-08-18 21:35:00,
2013-08-18 18:05:00,89.6,25.9,29.66,North,0,0.0,0.0,1,0.00,,,0.00,WUHU216HW,2013-08-18 22:05:00,
2013-08-18 18:35:00,89.3,25.7,29.66,North,0,0.0,0.0,1,0.00,,,0.00,WUHU216HW,2013-08-18 22:35:00,
2013-08-18 19:05:00,88.6,25.2,29.66,North,0,0.0,0.0,1,0.00,,,0.00,WUHU216HW,2013-08-18 23:05:00,
2013-08-18 19:10:00,88.6,25.2,29.66,North,0,0.0,0.0,1,0.00,,,0.00,WUHU216HW,2013-08-18 23:10:00,
2013-08-18 19:35:00,87.7,24.5,29.67,North,0,0.0,0.0,1,0.00,,,0.00,WUHU216HW,2013-08-18 23:35:00,
2013-08-18 20:05:00,86.0,23.2,29.68,North,0,0.0,0.0,1,0.00,,,0.00,WUHU216HW,2013-08-19 00:05:00,
2013-08-18 20:35:00,85.0,22.3,29.69,North,0,0.0,0.0,1,0.00,,,0.00,WUHU216HW,2013-08-19 00:35:00,
2013-08-18 21:05:00,83.2,21.1,29.69,North,0,0.0,0.0,1,0.00,,,0.00,WUHU216HW,2013-08-19 01:05:00,
2013-08-18 21:35:00,81.5,19.8,29.71,North,0,0.0,0.0,1,0.00,,,0.00,WUHU216HW,2013-08-19 01:35:00,
2013-08-18 22:05:00,79.9,18.6,29.72,North,0,0.0,0.0,1,0.00,,,0.00,WUHU216HW,2013-08-19 02:05:00,
2013-08-18 22:35:00,78.8,17.6,29.72,North,0,0.0,0.0,1,0.00,,,0.00,WUHU216HW,2013-08-19 02:35:00,
2013-08-18 23:05:00,78.8,17.6,29.72,North,0,0.0,0.0,1,0.00,,,0.00,WUHU216HW,2013-08-19 03:05:00,
2013-08-18 23:10:00,78.8,17.6,29.72,North,0,0.0,0.0,1,0.00,,,0.00,WUHU216HW,2013-08-19 03:10:00,
2013-08-18 23:35:00,78.1,17.1,29.74,North,0,0.0,0.0,1,0.00,,,0.00,WUHU216HW,2013-08-19 03:35:00,